sensor_id;sensor_type;location;lat;lon;timestamp;P1;durP1;ratioP1;P2;durP2;ratioP2
50531;SDS011;36483;37.396;-122.212;2023-01-15T00:01:52;18.35;;;4.10;;
50531;SDS011;36483;37.396;-122.212;2023-01-15T00:04:18;21.73;;;4.63;;
50531;SDS011;36483;37.396;-122.212;2023-01-15T00:06:44;14.93;;;3.95;;
50531;SDS011;36483;37.396;-122.212;2023-01-15T00:09:31;15.48;;;3.35;;
50531;SDS011;36483;37.396;-122.212;2023-01-15T00:11:57;16.17;;;3.15;;
50531;SDS011;36483;37.396;-122.212;2023-01-15T00:14:23;15.60;;;3.70;;
50531;SDS011;36483;37.396;-122.212;2023-01-15T00:16:50;20.08;;;3.55;;
50531;SDS011;36483;37.396;-122.212;2023-01-15T00:19:16;19.38;;;3.35;;
50531;SDS011;36483;37.396;-122.212;2023-01-15T00:21:42;20.67;;;4.78;;
50531;SDS011;36483;37.396;-122.212;2023-01-15T00:24:09;17.95;;;3.70;;
50531;SDS011;36483;37.396;-122.212;2023-01-15T00:26:53;23.33;;;4.00;;
50531;SDS011;36483;37.396;-122.212;2023-01-15T00:29:37;15.68;;;3.53;;
50531;SDS011;36483;37.396;-122.212;2023-01-15T00:32:04;18.63;;;3.28;;
50531;SDS011;36483;37.396;-122.212;2023-01-15T00:34:32;20.45;;;3.90;;
50531;SDS011;36483;37.396;-122.212;2023-01-15T00:37:00;23.13;;;4.00;;
50531;SDS011;36483;37.396;-122.212;2023-01-15T00:39:27;13.63;;;3.40;;
50531;SDS011;36483;37.396;-122.212;2023-01-15T00:41:54;19.60;;;3.88;;
50531;SDS011;36483;37.396;-122.212;2023-01-15T00:44:20;18.08;;;3.80;;
50531;SDS011;36483;37.396;-122.212;2023-01-15T00:46:48;24.60;;;3.72;;
50531;SDS011;36483;37.396;-122.212;2023-01-15T00:49:15;18.30;;;3.80;;
50531;SDS011;36483;37.396;-122.212;2023-01-15T00:51:42;17.27;;;3.65;;
50531;SDS011;36483;37.396;-122.212;2023-01-15T00:54:08;20.95;;;3.63;;
50531;SDS011;36483;37.396;-122.212;2023-01-15T00:56:34;20.30;;;3.85;;
50531;SDS011;36483;37.396;-122.212;2023-01-15T00:59:01;15.75;;;3.33;;
50531;SDS011;36483;37.396;-122.212;2023-01-15T01:01:28;12.52;;;3.25;;
50531;SDS011;36483;37.396;-122.212;2023-01-15T01:03:54;17.70;;;3.35;;
50531;SDS011;36483;37.396;-122.212;2023-01-15T01:06:21;13.43;;;3.00;;
50531;SDS011;36483;37.396;-122.212;2023-01-15T01:08:47;15.00;;;3.15;;
50531;SDS011;36483;37.396;-122.212;2023-01-15T01:11:17;18.90;;;3.20;;
50531;SDS011;36483;37.396;-122.212;2023-01-15T01:13:45;19.58;;;3.50;;
50531;SDS011;36483;37.396;-122.212;2023-01-15T01:16:20;14.88;;;3.70;;
50531;SDS011;36483;37.396;-122.212;2023-01-15T01:18:55;11.27;;;3.47;;
50531;SDS011;36483;37.396;-122.212;2023-01-15T01:21:22;18.25;;;3.58;;
50531;SDS011;36483;37.396;-122.212;2023-01-15T01:23:49;21.88;;;3.53;;
50531;SDS011;36483;37.396;-122.212;2023-01-15T01:26:16;11.10;;;2.88;;
50531;SDS011;36483;37.396;-122.212;2023-01-15T01:28:42;8.10;;;2.55;;
50531;SDS011;36483;37.396;-122.212;2023-01-15T01:31:08;6.50;;;1.80;;
50531;SDS011;36483;37.396;-122.212;2023-01-15T01:33:35;8.80;;;2.65;;
50531;SDS011;36483;37.396;-122.212;2023-01-15T01:36:01;11.05;;;1.88;;
50531;SDS011;36483;37.396;-122.212;2023-01-15T01:38:28;7.45;;;1.88;;
50531;SDS011;36483;37.396;-122.212;2023-01-15T01:40:54;6.85;;;1.85;;
50531;SDS011;36483;37.396;-122.212;2023-01-15T01:43:21;7.30;;;1.83;;
50531;SDS011;36483;37.396;-122.212;2023-01-15T01:45:49;7.78;;;1.80;;
50531;SDS011;36483;37.396;-122.212;2023-01-15T01:48:16;4.22;;;1.38;;
50531;SDS011;36483;37.396;-122.212;2023-01-15T01:50:44;2.95;;;0.88;;
50531;SDS011;36483;37.396;-122.212;2023-01-15T01:53:13;3.88;;;0.98;;
50531;SDS011;36483;37.396;-122.212;2023-01-15T01:55:42;4.28;;;0.80;;
50531;SDS011;36483;37.396;-122.212;2023-01-15T01:58:09;1.80;;;0.75;;
50531;SDS011;36483;37.396;-122.212;2023-01-15T02:00:37;3.13;;;0.80;;
50531;SDS011;36483;37.396;-122.212;2023-01-15T02:03:05;2.83;;;1.00;;
50531;SDS011;36483;37.396;-122.212;2023-01-15T02:05:33;6.43;;;0.93;;
50531;SDS011;36483;37.396;-122.212;2023-01-15T02:08:01;5.53;;;1.02;;
50531;SDS011;36483;37.396;-122.212;2023-01-15T02:10:28;3.92;;;0.90;;
50531;SDS011;36483;37.396;-122.212;2023-01-15T02:12:57;2.00;;;0.80;;
50531;SDS011;36483;37.396;-122.212;2023-01-15T02:15:27;1.57;;;0.77;;
50531;SDS011;36483;37.396;-122.212;2023-01-15T02:18:00;3.10;;;1.13;;
50531;SDS011;36483;37.396;-122.212;2023-01-15T02:20:41;5.30;;;1.20;;
50531;SDS011;36483;37.396;-122.212;2023-01-15T02:23:30;2.03;;;1.15;;
50531;SDS011;36483;37.396;-122.212;2023-01-15T02:29:08;3.75;;;1.23;;
50531;SDS011;36483;37.396;-122.212;2023-01-15T02:31:39;5.03;;;1.40;;
50531;SDS011;36483;37.396;-122.212;2023-01-15T02:34:15;5.30;;;2.10;;
50531;SDS011;36483;37.396;-122.212;2023-01-15T02:36:45;4.65;;;2.00;;
50531;SDS011;36483;37.396;-122.212;2023-01-15T02:39:14;2.22;;;1.15;;
50531;SDS011;36483;37.396;-122.212;2023-01-15T02:41:42;3.45;;;1.30;;
50531;SDS011;36483;37.396;-122.212;2023-01-15T02:44:14;3.88;;;0.88;;
50531;SDS011;36483;37.396;-122.212;2023-01-15T02:46:42;2.75;;;0.95;;
50531;SDS011;36483;37.396;-122.212;2023-01-15T02:49:09;2.72;;;0.77;;
50531;SDS011;36483;37.396;-122.212;2023-01-15T02:51:46;3.67;;;0.82;;
50531;SDS011;36483;37.396;-122.212;2023-01-15T02:54:19;5.65;;;1.30;;
50531;SDS011;36483;37.396;-122.212;2023-01-15T02:56:48;5.32;;;1.02;;
50531;SDS011;36483;37.396;-122.212;2023-01-15T02:59:22;3.55;;;1.38;;
50531;SDS011;36483;37.396;-122.212;2023-01-15T03:02:34;3.42;;;1.17;;
50531;SDS011;36483;37.396;-122.212;2023-01-15T03:04:55;6.18;;;1.45;;
50531;SDS011;36483;37.396;-122.212;2023-01-15T03:07:45;4.20;;;1.33;;
50531;SDS011;36483;37.396;-122.212;2023-01-15T03:10:17;5.35;;;1.10;;
50531;SDS011;36483;37.396;-122.212;2023-01-15T03:12:48;4.05;;;0.80;;
50531;SDS011;36483;37.396;-122.212;2023-01-15T03:15:34;2.72;;;1.00;;
50531;SDS011;36483;37.396;-122.212;2023-01-15T03:18:42;3.13;;;1.00;;
50531;SDS011;36483;37.396;-122.212;2023-01-15T03:21:14;3.88;;;1.00;;
50531;SDS011;36483;37.396;-122.212;2023-01-15T03:23:44;5.82;;;1.20;;
50531;SDS011;36483;37.396;-122.212;2023-01-15T03:26:14;4.88;;;1.00;;
50531;SDS011;36483;37.396;-122.212;2023-01-15T03:28:40;2.35;;;1.00;;
50531;SDS011;36483;37.396;-122.212;2023-01-15T03:31:07;5.22;;;1.00;;
50531;SDS011;36483;37.396;-122.212;2023-01-15T03:33:33;5.25;;;1.20;;
50531;SDS011;36483;37.396;-122.212;2023-01-15T03:36:00;4.05;;;1.15;;
50531;SDS011;36483;37.396;-122.212;2023-01-15T03:38:31;3.13;;;0.75;;
50531;SDS011;36483;37.396;-122.212;2023-01-15T03:43:45;2.63;;;1.20;;
50531;SDS011;36483;37.396;-122.212;2023-01-15T03:46:55;5.18;;;1.20;;
50531;SDS011;36483;37.396;-122.212;2023-01-15T03:55:16;5.85;;;2.00;;
50531;SDS011;36483;37.396;-122.212;2023-01-15T03:57:48;4.47;;;1.50;;
50531;SDS011;36483;37.396;-122.212;2023-01-15T04:00:32;4.93;;;1.70;;
50531;SDS011;36483;37.396;-122.212;2023-01-15T04:03:13;4.93;;;1.45;;
50531;SDS011;36483;37.396;-122.212;2023-01-15T04:05:41;5.40;;;1.80;;
50531;SDS011;36483;37.396;-122.212;2023-01-15T04:08:08;5.93;;;1.60;;
50531;SDS011;36483;37.396;-122.212;2023-01-15T04:10:35;5.80;;;1.42;;
50531;SDS011;36483;37.396;-122.212;2023-01-15T04:13:02;4.65;;;1.63;;
50531;SDS011;36483;37.396;-122.212;2023-01-15T04:15:28;4.97;;;1.73;;
50531;SDS011;36483;37.396;-122.212;2023-01-15T04:17:54;6.47;;;1.77;;
50531;SDS011;36483;37.396;-122.212;2023-01-15T04:20:20;4.35;;;1.58;;
50531;SDS011;36483;37.396;-122.212;2023-01-15T04:22:46;6.68;;;1.75;;
50531;SDS011;36483;37.396;-122.212;2023-01-15T04:25:12;8.88;;;1.67;;
50531;SDS011;36483;37.396;-122.212;2023-01-15T04:27:39;5.28;;;1.60;;
50531;SDS011;36483;37.396;-122.212;2023-01-15T04:30:05;6.13;;;1.55;;
50531;SDS011;36483;37.396;-122.212;2023-01-15T04:32:32;5.15;;;1.15;;
50531;SDS011;36483;37.396;-122.212;2023-01-15T04:34:58;7.72;;;1.63;;
50531;SDS011;36483;37.396;-122.212;2023-01-15T04:37:24;5.72;;;1.50;;
50531;SDS011;36483;37.396;-122.212;2023-01-15T04:39:50;9.05;;;1.48;;
50531;SDS011;36483;37.396;-122.212;2023-01-15T04:42:16;7.43;;;1.52;;
50531;SDS011;36483;37.396;-122.212;2023-01-15T04:45:00;8.75;;;1.95;;
50531;SDS011;36483;37.396;-122.212;2023-01-15T04:47:28;8.43;;;1.50;;
50531;SDS011;36483;37.396;-122.212;2023-01-15T04:49:55;8.27;;;1.63;;
50531;SDS011;36483;37.396;-122.212;2023-01-15T04:52:21;6.35;;;1.50;;
50531;SDS011;36483;37.396;-122.212;2023-01-15T04:54:47;10.05;;;1.80;;
50531;SDS011;36483;37.396;-122.212;2023-01-15T04:57:13;6.75;;;1.80;;
50531;SDS011;36483;37.396;-122.212;2023-01-15T04:59:39;6.03;;;1.42;;
50531;SDS011;36483;37.396;-122.212;2023-01-15T05:02:05;7.55;;;1.60;;
50531;SDS011;36483;37.396;-122.212;2023-01-15T05:04:32;8.10;;;1.33;;
50531;SDS011;36483;37.396;-122.212;2023-01-15T05:07:00;10.82;;;2.28;;
50531;SDS011;36483;37.396;-122.212;2023-01-15T05:09:27;10.52;;;1.85;;
50531;SDS011;36483;37.396;-122.212;2023-01-15T05:11:53;10.35;;;2.08;;
50531;SDS011;36483;37.396;-122.212;2023-01-15T05:14:19;11.63;;;2.10;;
50531;SDS011;36483;37.396;-122.212;2023-01-15T05:16:45;12.07;;;1.75;;
50531;SDS011;36483;37.396;-122.212;2023-01-15T05:19:11;6.32;;;1.85;;
50531;SDS011;36483;37.396;-122.212;2023-01-15T05:21:41;12.55;;;1.70;;
50531;SDS011;36483;37.396;-122.212;2023-01-15T05:24:09;10.32;;;1.90;;
50531;SDS011;36483;37.396;-122.212;2023-01-15T05:26:59;6.53;;;1.65;;
50531;SDS011;36483;37.396;-122.212;2023-01-15T05:29:26;8.82;;;1.90;;
50531;SDS011;36483;37.396;-122.212;2023-01-15T05:31:52;12.52;;;2.20;;
50531;SDS011;36483;37.396;-122.212;2023-01-15T05:34:18;6.35;;;1.70;;
50531;SDS011;36483;37.396;-122.212;2023-01-15T05:36:44;5.28;;;1.63;;
50531;SDS011;36483;37.396;-122.212;2023-01-15T05:39:10;5.85;;;1.63;;
50531;SDS011;36483;37.396;-122.212;2023-01-15T05:41:37;6.22;;;1.98;;
50531;SDS011;36483;37.396;-122.212;2023-01-15T05:46:48;8.48;;;1.80;;
50531;SDS011;36483;37.396;-122.212;2023-01-15T05:49:17;9.95;;;2.17;;
50531;SDS011;36483;37.396;-122.212;2023-01-15T05:51:45;7.07;;;1.75;;
50531;SDS011;36483;37.396;-122.212;2023-01-15T05:54:13;9.52;;;1.88;;
50531;SDS011;36483;37.396;-122.212;2023-01-15T05:56:40;11.68;;;2.67;;
50531;SDS011;36483;37.396;-122.212;2023-01-15T05:59:07;7.68;;;2.05;;
50531;SDS011;36483;37.396;-122.212;2023-01-15T06:01:34;7.85;;;1.75;;
50531;SDS011;36483;37.396;-122.212;2023-01-15T06:04:01;7.45;;;2.10;;
50531;SDS011;36483;37.396;-122.212;2023-01-15T06:06:28;9.00;;;1.80;;
50531;SDS011;36483;37.396;-122.212;2023-01-15T06:08:54;8.27;;;1.90;;
50531;SDS011;36483;37.396;-122.212;2023-01-15T06:11:20;5.53;;;1.73;;
50531;SDS011;36483;37.396;-122.212;2023-01-15T06:13:47;8.40;;;2.08;;
50531;SDS011;36483;37.396;-122.212;2023-01-15T06:16:13;10.18;;;2.80;;
50531;SDS011;36483;37.396;-122.212;2023-01-15T06:18:39;6.35;;;1.83;;
50531;SDS011;36483;37.396;-122.212;2023-01-15T06:21:07;6.00;;;1.67;;
50531;SDS011;36483;37.396;-122.212;2023-01-15T06:23:34;8.93;;;2.38;;
50531;SDS011;36483;37.396;-122.212;2023-01-15T06:26:02;7.50;;;1.90;;
50531;SDS011;36483;37.396;-122.212;2023-01-15T06:28:29;9.23;;;2.55;;
50531;SDS011;36483;37.396;-122.212;2023-01-15T06:30:56;11.63;;;2.38;;
50531;SDS011;36483;37.396;-122.212;2023-01-15T06:33:22;8.60;;;2.00;;
50531;SDS011;36483;37.396;-122.212;2023-01-15T06:35:48;10.45;;;2.63;;
50531;SDS011;36483;37.396;-122.212;2023-01-15T06:38:15;6.47;;;1.70;;
50531;SDS011;36483;37.396;-122.212;2023-01-15T06:40:41;7.13;;;2.03;;
50531;SDS011;36483;37.396;-122.212;2023-01-15T06:43:08;7.95;;;1.45;;
50531;SDS011;36483;37.396;-122.212;2023-01-15T06:45:53;7.60;;;1.50;;
50531;SDS011;36483;37.396;-122.212;2023-01-15T06:48:37;4.88;;;1.60;;
50531;SDS011;36483;37.396;-122.212;2023-01-15T06:51:04;11.98;;;1.77;;
50531;SDS011;36483;37.396;-122.212;2023-01-15T06:53:30;5.88;;;1.92;;
50531;SDS011;36483;37.396;-122.212;2023-01-15T06:55:56;9.10;;;1.80;;
50531;SDS011;36483;37.396;-122.212;2023-01-15T06:58:22;8.65;;;1.70;;
50531;SDS011;36483;37.396;-122.212;2023-01-15T07:00:48;7.30;;;1.98;;
50531;SDS011;36483;37.396;-122.212;2023-01-15T07:03:20;5.07;;;1.42;;
50531;SDS011;36483;37.396;-122.212;2023-01-15T07:05:47;6.10;;;1.92;;
50531;SDS011;36483;37.396;-122.212;2023-01-15T07:08:13;7.38;;;1.73;;
50531;SDS011;36483;37.396;-122.212;2023-01-15T07:10:40;5.43;;;1.60;;
50531;SDS011;36483;37.396;-122.212;2023-01-15T07:13:07;5.85;;;1.67;;
50531;SDS011;36483;37.396;-122.212;2023-01-15T07:15:34;5.50;;;1.23;;
50531;SDS011;36483;37.396;-122.212;2023-01-15T07:18:02;9.65;;;1.45;;
50531;SDS011;36483;37.396;-122.212;2023-01-15T07:20:29;6.20;;;1.88;;
50531;SDS011;36483;37.396;-122.212;2023-01-15T07:22:55;4.97;;;1.70;;
50531;SDS011;36483;37.396;-122.212;2023-01-15T07:25:21;7.10;;;1.60;;
50531;SDS011;36483;37.396;-122.212;2023-01-15T07:27:47;7.72;;;1.65;;
50531;SDS011;36483;37.396;-122.212;2023-01-15T07:30:14;5.25;;;1.40;;
50531;SDS011;36483;37.396;-122.212;2023-01-15T07:32:40;6.35;;;1.50;;
50531;SDS011;36483;37.396;-122.212;2023-01-15T07:35:07;8.05;;;1.60;;
50531;SDS011;36483;37.396;-122.212;2023-01-15T07:37:34;7.05;;;1.63;;
50531;SDS011;36483;37.396;-122.212;2023-01-15T07:40:00;6.57;;;1.90;;
50531;SDS011;36483;37.396;-122.212;2023-01-15T07:42:26;8.88;;;1.63;;
50531;SDS011;36483;37.396;-122.212;2023-01-15T07:45:10;7.80;;;1.73;;
50531;SDS011;36483;37.396;-122.212;2023-01-15T07:47:55;9.25;;;1.98;;
50531;SDS011;36483;37.396;-122.212;2023-01-15T07:50:39;7.95;;;1.92;;
50531;SDS011;36483;37.396;-122.212;2023-01-15T07:53:06;5.05;;;1.60;;
50531;SDS011;36483;37.396;-122.212;2023-01-15T07:55:32;5.32;;;1.55;;
50531;SDS011;36483;37.396;-122.212;2023-01-15T07:58:00;6.78;;;1.60;;
50531;SDS011;36483;37.396;-122.212;2023-01-15T08:00:28;6.05;;;1.52;;
50531;SDS011;36483;37.396;-122.212;2023-01-15T08:02:54;6.05;;;1.40;;
50531;SDS011;36483;37.396;-122.212;2023-01-15T08:05:20;6.22;;;1.50;;
50531;SDS011;36483;37.396;-122.212;2023-01-15T08:07:47;8.70;;;1.45;;
50531;SDS011;36483;37.396;-122.212;2023-01-15T08:10:14;6.47;;;2.10;;
50531;SDS011;36483;37.396;-122.212;2023-01-15T08:12:40;5.68;;;1.45;;
50531;SDS011;36483;37.396;-122.212;2023-01-15T08:15:25;5.93;;;1.42;;
50531;SDS011;36483;37.396;-122.212;2023-01-15T08:17:51;6.38;;;1.25;;
50531;SDS011;36483;37.396;-122.212;2023-01-15T08:20:19;5.20;;;1.63;;
50531;SDS011;36483;37.396;-122.212;2023-01-15T08:22:47;11.70;;;2.03;;
50531;SDS011;36483;37.396;-122.212;2023-01-15T08:25:15;8.07;;;1.40;;
50531;SDS011;36483;37.396;-122.212;2023-01-15T08:27:43;7.10;;;1.58;;
50531;SDS011;36483;37.396;-122.212;2023-01-15T08:30:10;7.03;;;1.83;;
50531;SDS011;36483;37.396;-122.212;2023-01-15T08:32:39;5.43;;;1.17;;
50531;SDS011;36483;37.396;-122.212;2023-01-15T08:35:06;11.88;;;2.00;;
50531;SDS011;36483;37.396;-122.212;2023-01-15T08:37:32;9.70;;;1.98;;
50531;SDS011;36483;37.396;-122.212;2023-01-15T08:39:59;7.90;;;1.30;;
50531;SDS011;36483;37.396;-122.212;2023-01-15T08:42:25;6.18;;;1.40;;
50531;SDS011;36483;37.396;-122.212;2023-01-15T08:44:51;9.65;;;1.42;;
50531;SDS011;36483;37.396;-122.212;2023-01-15T08:47:17;7.30;;;1.88;;
50531;SDS011;36483;37.396;-122.212;2023-01-15T08:49:44;8.23;;;1.60;;
50531;SDS011;36483;37.396;-122.212;2023-01-15T08:52:12;7.97;;;1.90;;
50531;SDS011;36483;37.396;-122.212;2023-01-15T08:54:39;10.63;;;1.45;;
50531;SDS011;36483;37.396;-122.212;2023-01-15T08:57:05;5.50;;;1.58;;
50531;SDS011;36483;37.396;-122.212;2023-01-15T08:59:34;14.70;;;2.33;;
50531;SDS011;36483;37.396;-122.212;2023-01-15T09:02:00;6.00;;;1.63;;
50531;SDS011;36483;37.396;-122.212;2023-01-15T09:04:26;8.40;;;1.70;;
50531;SDS011;36483;37.396;-122.212;2023-01-15T09:06:52;6.85;;;1.60;;
50531;SDS011;36483;37.396;-122.212;2023-01-15T09:09:18;5.55;;;1.63;;
50531;SDS011;36483;37.396;-122.212;2023-01-15T09:11:44;6.32;;;1.90;;
50531;SDS011;36483;37.396;-122.212;2023-01-15T09:14:12;7.55;;;1.65;;
50531;SDS011;36483;37.396;-122.212;2023-01-15T09:16:39;7.85;;;2.00;;
50531;SDS011;36483;37.396;-122.212;2023-01-15T09:19:06;8.43;;;2.10;;
50531;SDS011;36483;37.396;-122.212;2023-01-15T09:21:33;6.70;;;1.83;;
50531;SDS011;36483;37.396;-122.212;2023-01-15T09:24:00;7.47;;;1.63;;
50531;SDS011;36483;37.396;-122.212;2023-01-15T09:28:55;7.88;;;1.80;;
50531;SDS011;36483;37.396;-122.212;2023-01-15T09:31:21;7.57;;;1.83;;
50531;SDS011;36483;37.396;-122.212;2023-01-15T09:33:48;9.52;;;1.92;;
50531;SDS011;36483;37.396;-122.212;2023-01-15T09:36:18;5.70;;;1.70;;
50531;SDS011;36483;37.396;-122.212;2023-01-15T09:38:53;7.95;;;1.48;;
50531;SDS011;36483;37.396;-122.212;2023-01-15T09:41:19;6.18;;;1.70;;
50531;SDS011;36483;37.396;-122.212;2023-01-15T09:47:13;8.00;;;1.95;;
50531;SDS011;36483;37.396;-122.212;2023-01-15T09:55:19;5.53;;;1.50;;
50531;SDS011;36483;37.396;-122.212;2023-01-15T09:57:55;7.68;;;1.70;;
50531;SDS011;36483;37.396;-122.212;2023-01-15T10:00:24;6.18;;;1.60;;
50531;SDS011;36483;37.396;-122.212;2023-01-15T10:03:04;7.28;;;1.52;;
50531;SDS011;36483;37.396;-122.212;2023-01-15T10:10:47;4.47;;;1.50;;
50531;SDS011;36483;37.396;-122.212;2023-01-15T10:15:50;4.82;;;1.83;;
50531;SDS011;36483;37.396;-122.212;2023-01-15T10:18:19;6.50;;;1.70;;
50531;SDS011;36483;37.396;-122.212;2023-01-15T10:21:06;11.30;;;2.17;;
50531;SDS011;36483;37.396;-122.212;2023-01-15T10:23:48;9.05;;;1.52;;
50531;SDS011;36483;37.396;-122.212;2023-01-15T10:40:16;9.30;;;2.10;;
50531;SDS011;36483;37.396;-122.212;2023-01-15T10:45:29;14.82;;;2.10;;
50531;SDS011;36483;37.396;-122.212;2023-01-15T10:48:11;8.70;;;2.00;;
50531;SDS011;36483;37.396;-122.212;2023-01-15T10:50:50;5.07;;;1.70;;
50531;SDS011;36483;37.396;-122.212;2023-01-15T11:01:49;9.23;;;2.40;;
50531;SDS011;36483;37.396;-122.212;2023-01-15T11:04:17;6.03;;;1.92;;
50531;SDS011;36483;37.396;-122.212;2023-01-15T11:06:43;6.80;;;1.80;;
50531;SDS011;36483;37.396;-122.212;2023-01-15T11:09:19;8.45;;;2.03;;
50531;SDS011;36483;37.396;-122.212;2023-01-15T11:11:50;6.00;;;1.77;;
50531;SDS011;36483;37.396;-122.212;2023-01-15T11:14:34;7.97;;;2.00;;
50531;SDS011;36483;37.396;-122.212;2023-01-15T11:17:20;6.78;;;2.10;;
50531;SDS011;36483;37.396;-122.212;2023-01-15T11:20:15;4.57;;;1.70;;
50531;SDS011;36483;37.396;-122.212;2023-01-15T11:22:45;10.23;;;1.77;;
50531;SDS011;36483;37.396;-122.212;2023-01-15T11:25:11;8.45;;;2.13;;
50531;SDS011;36483;37.396;-122.212;2023-01-15T11:27:38;7.10;;;2.05;;
50531;SDS011;36483;37.396;-122.212;2023-01-15T11:30:05;11.75;;;2.20;;
50531;SDS011;36483;37.396;-122.212;2023-01-15T11:32:36;5.13;;;1.65;;
50531;SDS011;36483;37.396;-122.212;2023-01-15T11:35:13;13.82;;;2.42;;
50531;SDS011;36483;37.396;-122.212;2023-01-15T11:37:40;9.38;;;2.05;;
50531;SDS011;36483;37.396;-122.212;2023-01-15T11:40:17;8.02;;;2.47;;
50531;SDS011;36483;37.396;-122.212;2023-01-15T11:42:45;12.68;;;2.10;;
50531;SDS011;36483;37.396;-122.212;2023-01-15T11:45:30;8.07;;;2.08;;
50531;SDS011;36483;37.396;-122.212;2023-01-15T11:48:15;7.18;;;1.77;;
50531;SDS011;36483;37.396;-122.212;2023-01-15T11:51:08;8.07;;;2.00;;
50531;SDS011;36483;37.396;-122.212;2023-01-15T11:53:37;10.95;;;2.00;;
50531;SDS011;36483;37.396;-122.212;2023-01-15T11:56:16;7.05;;;1.95;;
50531;SDS011;36483;37.396;-122.212;2023-01-15T11:58:45;5.85;;;1.92;;
50531;SDS011;36483;37.396;-122.212;2023-01-15T12:03:55;6.70;;;1.70;;
50531;SDS011;36483;37.396;-122.212;2023-01-15T12:06:22;5.00;;;1.83;;
50531;SDS011;36483;37.396;-122.212;2023-01-15T12:09:13;7.05;;;1.60;;
50531;SDS011;36483;37.396;-122.212;2023-01-15T12:17:45;5.65;;;1.83;;
50531;SDS011;36483;37.396;-122.212;2023-01-15T12:20:33;12.15;;;2.38;;
50531;SDS011;36483;37.396;-122.212;2023-01-15T12:23:23;3.35;;;1.33;;
50531;SDS011;36483;37.396;-122.212;2023-01-15T12:28:28;7.55;;;1.75;;
50531;SDS011;36483;37.396;-122.212;2023-01-15T12:31:13;11.27;;;2.22;;
50531;SDS011;36483;37.396;-122.212;2023-01-15T12:36:28;4.38;;;1.77;;
50531;SDS011;36483;37.396;-122.212;2023-01-15T12:38:58;8.23;;;1.55;;
50531;SDS011;36483;37.396;-122.212;2023-01-15T12:44:16;6.30;;;1.50;;
50531;SDS011;36483;37.396;-122.212;2023-01-15T12:47:05;9.95;;;1.95;;
50531;SDS011;36483;37.396;-122.212;2023-01-15T12:49:52;7.30;;;1.92;;
50531;SDS011;36483;37.396;-122.212;2023-01-15T12:52:26;6.18;;;1.63;;
50531;SDS011;36483;37.396;-122.212;2023-01-15T12:55:01;5.45;;;1.70;;
50531;SDS011;36483;37.396;-122.212;2023-01-15T12:57:39;5.00;;;1.70;;
50531;SDS011;36483;37.396;-122.212;2023-01-15T13:00:11;4.85;;;1.50;;
50531;SDS011;36483;37.396;-122.212;2023-01-15T13:05:38;7.63;;;1.73;;
50531;SDS011;36483;37.396;-122.212;2023-01-15T13:10:52;6.60;;;1.50;;
50531;SDS011;36483;37.396;-122.212;2023-01-15T13:13:20;6.72;;;1.90;;
50531;SDS011;36483;37.396;-122.212;2023-01-15T13:18:25;6.35;;;1.48;;
50531;SDS011;36483;37.396;-122.212;2023-01-15T13:21:16;5.43;;;1.50;;
50531;SDS011;36483;37.396;-122.212;2023-01-15T13:24:02;5.63;;;1.80;;
50531;SDS011;36483;37.396;-122.212;2023-01-15T13:32:02;6.82;;;1.92;;
50531;SDS011;36483;37.396;-122.212;2023-01-15T13:34:39;6.90;;;2.03;;
50531;SDS011;36483;37.396;-122.212;2023-01-15T13:37:19;5.68;;;1.65;;
50531;SDS011;36483;37.396;-122.212;2023-01-15T13:42:36;13.27;;;2.17;;
50531;SDS011;36483;37.396;-122.212;2023-01-15T13:47:52;9.10;;;2.17;;
50531;SDS011;36483;37.396;-122.212;2023-01-15T13:50:28;5.70;;;2.03;;
50531;SDS011;36483;37.396;-122.212;2023-01-15T13:53:00;8.18;;;1.95;;
50531;SDS011;36483;37.396;-122.212;2023-01-15T13:57:58;6.78;;;2.17;;
50531;SDS011;36483;37.396;-122.212;2023-01-15T14:00:26;7.97;;;1.90;;
50531;SDS011;36483;37.396;-122.212;2023-01-15T14:02:58;6.82;;;2.10;;
50531;SDS011;36483;37.396;-122.212;2023-01-15T14:07:56;7.85;;;1.98;;
50531;SDS011;36483;37.396;-122.212;2023-01-15T14:10:24;8.82;;;2.38;;
50531;SDS011;36483;37.396;-122.212;2023-01-15T14:26:49;11.98;;;2.33;;
50531;SDS011;36483;37.396;-122.212;2023-01-15T14:35:16;16.13;;;3.05;;
50531;SDS011;36483;37.396;-122.212;2023-01-15T14:37:50;12.90;;;2.65;;
50531;SDS011;36483;37.396;-122.212;2023-01-15T14:40:20;12.73;;;2.60;;
50531;SDS011;36483;37.396;-122.212;2023-01-15T14:42:50;13.40;;;2.78;;
50531;SDS011;36483;37.396;-122.212;2023-01-15T14:45:28;20.75;;;3.13;;
50531;SDS011;36483;37.396;-122.212;2023-01-15T14:47:56;22.25;;;3.00;;
50531;SDS011;36483;37.396;-122.212;2023-01-15T14:53:04;18.23;;;3.08;;
50531;SDS011;36483;37.396;-122.212;2023-01-15T14:55:55;15.77;;;3.03;;
50531;SDS011;36483;37.396;-122.212;2023-01-15T14:58:36;16.33;;;3.28;;
50531;SDS011;36483;37.396;-122.212;2023-01-15T15:03:59;14.07;;;2.95;;
50531;SDS011;36483;37.396;-122.212;2023-01-15T15:09:19;13.20;;;2.70;;
50531;SDS011;36483;37.396;-122.212;2023-01-15T15:14:58;14.90;;;2.55;;
50531;SDS011;36483;37.396;-122.212;2023-01-15T15:21:06;13.18;;;2.35;;
50531;SDS011;36483;37.396;-122.212;2023-01-15T15:28:56;11.75;;;2.30;;
50531;SDS011;36483;37.396;-122.212;2023-01-15T15:31:23;12.85;;;2.55;;
50531;SDS011;36483;37.396;-122.212;2023-01-15T15:33:51;14.05;;;2.28;;
50531;SDS011;36483;37.396;-122.212;2023-01-15T15:36:20;14.40;;;2.17;;
50531;SDS011;36483;37.396;-122.212;2023-01-15T15:38:51;8.38;;;2.00;;
50531;SDS011;36483;37.396;-122.212;2023-01-15T15:41:21;11.88;;;1.98;;
50531;SDS011;36483;37.396;-122.212;2023-01-15T15:44:12;12.52;;;2.15;;
50531;SDS011;36483;37.396;-122.212;2023-01-15T15:47:23;10.30;;;1.92;;
50531;SDS011;36483;37.396;-122.212;2023-01-15T15:50:19;9.05;;;1.92;;
50531;SDS011;36483;37.396;-122.212;2023-01-15T15:52:47;11.38;;;2.67;;
50531;SDS011;36483;37.396;-122.212;2023-01-15T15:55:40;13.93;;;2.70;;
50531;SDS011;36483;37.396;-122.212;2023-01-15T15:58:11;10.82;;;2.33;;
50531;SDS011;36483;37.396;-122.212;2023-01-15T16:00:47;13.40;;;2.20;;
50531;SDS011;36483;37.396;-122.212;2023-01-15T16:03:20;17.27;;;2.25;;
50531;SDS011;36483;37.396;-122.212;2023-01-15T16:05:57;14.48;;;2.17;;
50531;SDS011;36483;37.396;-122.212;2023-01-15T16:08:24;17.17;;;2.60;;
50531;SDS011;36483;37.396;-122.212;2023-01-15T16:10:52;9.00;;;1.92;;
50531;SDS011;36483;37.396;-122.212;2023-01-15T16:13:27;12.02;;;2.15;;
50531;SDS011;36483;37.396;-122.212;2023-01-15T16:15:57;11.18;;;1.98;;
50531;SDS011;36483;37.396;-122.212;2023-01-15T16:18:30;12.60;;;2.35;;
50531;SDS011;36483;37.396;-122.212;2023-01-15T16:20:59;11.18;;;1.92;;
50531;SDS011;36483;37.396;-122.212;2023-01-15T16:23:26;9.50;;;2.10;;
50531;SDS011;36483;37.396;-122.212;2023-01-15T16:26:00;10.18;;;1.70;;
50531;SDS011;36483;37.396;-122.212;2023-01-15T16:28:35;7.55;;;1.50;;
50531;SDS011;36483;37.396;-122.212;2023-01-15T16:31:08;9.55;;;1.17;;
50531;SDS011;36483;37.396;-122.212;2023-01-15T16:33:36;7.18;;;1.35;;
50531;SDS011;36483;37.396;-122.212;2023-01-15T16:36:03;6.65;;;1.20;;
50531;SDS011;36483;37.396;-122.212;2023-01-15T16:38:32;6.90;;;1.33;;
50531;SDS011;36483;37.396;-122.212;2023-01-15T16:41:03;5.80;;;1.48;;
50531;SDS011;36483;37.396;-122.212;2023-01-15T16:43:29;7.05;;;1.17;;
50531;SDS011;36483;37.396;-122.212;2023-01-15T16:45:58;6.90;;;1.10;;
50531;SDS011;36483;37.396;-122.212;2023-01-15T16:48:28;3.60;;;1.02;;